Time;durP1;ratioP1;P1;durP2;ratioP2;P2;SDS_P1;SDS_P2;PMS_P1;PMS_P2;Temp;Humidity;BMP_temperature;BMP_pressure;BME280_temperature;BME280_humidity;BME280_pressure;Samples;Min_cycle;Max_cycle;Signal;HPM_P1;HPM_P2
2021/08/30 00:00:08;;;;;;;;;8.33;5.67;;;;;16.43;70.28;101665.34;5055733;28;45594;-70
2021/08/30 00:02:34;;;;;;;;;5.33;2.00;;;;;16.45;70.31;101663.38;5054055;28;45391;-70
2021/08/30 00:05:01;;;;;;;;;6.67;4.00;;;;;16.47;70.03;101656.97;5052844;28;45535;-68
2021/08/30 00:07:26;;;;;;;;;1.67;1.67;;;;;16.51;70.33;101668.19;5054765;28;46198;-71
2021/08/30 00:09:52;;;;;;;;;7.00;3.33;;;;;16.50;70.27;101661.19;5047160;28;45413;-68
2021/08/30 00:12:17;;;;;;;;;5.33;4.33;;;;;16.54;70.00;101662.63;5048157;28;45446;-68
2021/08/30 00:14:43;;;;;;;;;7.00;3.00;;;;;16.54;70.02;101657.31;5048920;28;45416;-71
2021/08/30 00:17:08;;;;;;;;;5.00;4.33;;;;;16.56;69.69;101655.38;5057532;28;45256;-70
2021/08/30 00:19:35;;;;;;;;;6.33;5.00;;;;;16.58;69.87;101653.44;5041586;28;45403;-69
2021/08/30 00:22:04;;;;;;;;;5.67;4.67;;;;;16.60;69.95;101650.66;5058312;28;45323;-69
2021/08/30 00:24:30;;;;;;;;;4.00;3.33;;;;;16.59;69.30;101654.28;5047779;28;45429;-70
2021/08/30 00:26:56;;;;;;;;;4.67;3.67;;;;;16.57;69.56;101643.78;5051010;28;45336;-68
2021/08/30 00:29:25;;;;;;;;;4.67;4.33;;;;;16.56;69.41;101650.06;5040465;28;45520;-68
2021/08/30 00:31:52;;;;;;;;;7.00;5.00;;;;;16.57;69.20;101646.44;5054862;28;45365;-68
2021/08/30 00:34:18;;;;;;;;;4.33;4.33;;;;;16.56;69.48;101644.75;5050691;28;45501;-70
2021/08/30 00:36:43;;;;;;;;;3.33;2.00;;;;;16.54;69.45;101641.41;5055319;28;45851;-66
2021/08/30 00:39:08;;;;;;;;;4.00;3.67;;;;;16.54;69.37;101641.41;5037265;28;45447;-65
2021/08/30 00:41:34;;;;;;;;;8.67;6.33;;;;;16.49;69.29;101639.13;5054774;28;45368;-65
2021/08/30 00:43:59;;;;;;;;;3.33;3.33;;;;;16.48;69.27;101636.63;5056386;28;45491;-67
2021/08/30 00:46:24;;;;;;;;;9.33;8.00;;;;;16.46;69.31;101634.09;5055746;28;46084;-65
2021/08/30 00:48:50;;;;;;;;;12.67;8.67;;;;;16.44;69.26;101635.22;5050850;28;45582;-63
2021/08/30 00:51:17;;;;;;;;;16.67;14.33;;;;;16.43;69.16;101633.53;5062654;28;45858;-63
2021/08/30 00:53:48;;;;;;;;;12.00;9.67;;;;;16.42;69.53;101637.13;5055850;28;45452;-69
2021/08/30 00:56:15;;;;;;;;;9.67;8.00;;;;;16.40;69.31;101631.97;5055458;28;47310;-67
2021/08/30 00:58:42;;;;;;;;;9.67;7.33;;;;;16.39;69.34;101637.41;5065361;28;45373;-66
2021/08/30 01:01:09;;;;;;;;;9.33;7.00;;;;;16.40;69.27;101633.75;5048111;28;45409;-68
2021/08/30 01:03:35;;;;;;;;;12.33;8.33;;;;;16.40;69.58;101633.75;5045597;28;45283;-71
2021/08/30 01:06:09;;;;;;;;;13.33;11.33;;;;;16.38;69.28;101625.94;5031564;28;45935;-67
2021/08/30 01:08:42;;;;;;;;;8.00;8.00;;;;;16.38;69.67;101630.41;5048891;28;45411;-66
2021/08/30 01:11:13;;;;;;;;;10.00;7.00;;;;;16.37;69.35;101629.56;5060267;28;45604;-67
2021/08/30 01:13:51;;;;;;;;;10.00;8.00;;;;;16.38;69.81;101641.03;5066018;28;45517;-65
2021/08/30 01:16:21;;;;;;;;;11.00;6.67;;;;;16.36;70.07;101632.34;5052054;28;45526;-68
2021/08/30 01:18:53;;;;;;;;;10.33;8.00;;;;;16.34;69.95;101630.66;5038291;28;45387;-67
2021/08/30 01:21:32;;;;;;;;;12.67;7.67;;;;;16.34;70.01;101628.00;5040359;28;45413;-67
2021/08/30 01:24:03;;;;;;;;;8.33;8.33;;;;;16.34;70.33;101628.00;5045029;28;45641;-66
2021/08/30 01:26:32;;;;;;;;;12.00;9.67;;;;;16.31;70.31;101620.31;5047859;28;45252;-68
2021/08/30 01:29:13;;;;;;;;;8.00;8.00;;;;;16.31;70.29;101628.28;5040371;28;45490;-68
2021/08/30 01:31:50;;;;;;;;;8.67;7.67;;;;;16.31;70.51;101622.97;5038409;28;45260;-68
2021/08/30 01:34:18;;;;;;;;;10.33;9.67;;;;;16.32;70.60;101624.66;5031259;28;45467;-67
2021/08/30 01:36:45;;;;;;;;;10.00;8.67;;;;;16.34;70.72;101625.34;5039093;28;46373;-66
2021/08/30 01:39:12;;;;;;;;;11.67;10.00;;;;;16.37;71.08;101628.72;5043365;28;45535;-69
2021/08/30 01:41:38;;;;;;;;;9.33;7.67;;;;;16.35;71.46;101634.16;5043378;28;45487;-69
2021/08/30 01:44:06;;;;;;;;;15.67;11.33;;;;;16.32;71.32;101622.00;5047085;28;45491;-69
2021/08/30 01:46:32;;;;;;;;;16.00;11.33;;;;;16.29;71.42;101616.94;5019961;28;45338;-68
2021/08/30 01:48:59;;;;;;;;;14.00;9.67;;;;;16.29;71.34;101619.59;5041683;28;45335;-67
2021/08/30 01:51:26;;;;;;;;;11.33;10.33;;;;;16.31;71.42;101615.03;5043309;28;45392;-68
2021/08/30 01:53:53;;;;;;;;;17.33;12.00;;;;;16.31;71.73;101611.53;5039134;28;45401;-69
2021/08/30 01:56:21;;;;;;;;;13.00;10.67;;;;;16.28;71.84;101614.44;5038891;28;46159;-68
2021/08/30 02:01:32;;;;;;;;;11.67;9.33;;;;;16.27;71.85;101613.59;5038897;28;45525;-70
2021/08/30 02:03:58;;;;;;;;;16.33;14.67;;;;;16.28;72.05;101615.28;5042905;28;45480;-66
2021/08/30 02:06:23;;;;;;;;;10.67;8.00;;;;;16.28;72.80;101612.66;5043110;28;46063;-69
2021/08/30 02:08:49;;;;;;;;;16.67;13.00;;;;;16.28;72.34;101615.28;5037855;28;45598;-68
2021/08/30 02:11:20;;;;;;;;;17.00;11.00;;;;;16.25;72.71;101615.53;5038644;28;45306;-68
2021/08/30 02:13:46;;;;;;;;;12.33;11.00;;;;;16.23;72.67;101614.84;5038569;28;45517;-70
2021/08/30 02:16:12;;;;;;;;;13.00;12.33;;;;;16.21;72.52;101613.28;5035087;28;45305;-69
2021/08/30 02:18:45;;;;;;;;;12.00;12.00;;;;;16.21;72.80;101608.81;5046090;28;45471;-68
2021/08/30 02:21:40;;;;;;;;;10.33;9.33;;;;;16.24;72.75;101613.88;5047319;28;45453;-69
2021/08/30 02:24:39;;;;;;;;;14.67;11.33;;;;;16.26;73.02;101616.41;5042919;28;45295;-69
2021/08/30 02:27:39;;;;;;;;;10.33;9.00;;;;;16.25;72.86;101604.94;5049581;28;45609;-68
2021/08/30 02:30:08;;;;;;;;;10.33;10.33;;;;;16.24;73.38;101611.22;5047379;28;45511;-68
2021/08/30 02:32:36;;;;;;;;;12.33;11.00;;;;;16.21;73.01;101603.50;5041159;28;45451;-69
2021/08/30 02:35:06;;;;;;;;;12.00;10.00;;;;;16.19;73.41;101610.78;5037402;28;45545;-69
2021/08/30 02:37:36;;;;;;;;;12.67;12.00;;;;;16.16;73.53;101606.56;5036082;28;46752;-69
2021/08/30 02:40:04;;;;;;;;;13.00;10.67;;;;;16.15;74.30;101609.31;5035558;28;45428;-68
2021/08/30 02:42:32;;;;;;;;;15.00;10.33;;;;;16.15;74.21;101604.88;5047272;28;45466;-68
2021/08/30 02:44:59;;;;;;;;;14.00;12.33;;;;;16.11;74.42;101608.78;5046856;28;45543;-68
2021/08/30 02:47:26;;;;;;;;;16.00;12.00;;;;;16.11;74.90;101613.22;5036507;28;45503;-70
2021/08/30 02:49:53;;;;;;;;;13.00;9.00;;;;;16.06;74.74;101610.09;5036771;28;50107;-69
2021/08/30 02:52:21;;;;;;;;;13.00;10.33;;;;;16.03;74.82;101611.19;5033382;28;45522;-69
2021/08/30 02:54:50;;;;;;;;;15.00;13.00;;;;;16.03;75.05;101610.38;5039953;28;45480;-71
2021/08/30 02:57:17;;;;;;;;;12.00;10.67;;;;;16.04;74.93;101612.06;5048105;28;46217;-69
2021/08/30 02:59:43;;;;;;;;;13.00;11.00;;;;;16.03;75.48;101613.84;5048279;28;45534;-69
2021/08/30 03:02:10;;;;;;;;;16.00;11.00;;;;;16.02;75.26;101611.34;5042349;28;45370;-68
2021/08/30 03:04:36;;;;;;;;;18.33;12.33;;;;;16.00;75.51;101617.59;5052665;28;45293;-68
2021/08/30 03:07:03;;;;;;;;;12.33;11.00;;;;;16.03;75.61;101613.84;5039013;28;45389;-69
2021/08/30 03:09:28;;;;;;;;;12.33;10.33;;;;;16.04;75.63;101612.06;5040162;28;45557;-70
2021/08/30 03:11:55;;;;;;;;;13.33;12.67;;;;;16.05;75.55;101609.28;5035994;28;45515;-68
2021/08/30 03:14:23;;;;;;;;;12.00;10.00;;;;;16.09;75.72;101609.88;5040241;28;45703;-69
2021/08/30 03:16:56;;;;;;;;;13.33;13.00;;;;;16.10;75.87;101609.72;5035953;28;45474;-69
2021/08/30 03:19:23;;;;;;;;;15.33;12.00;;;;;16.07;75.70;101602.03;5032369;28;45419;-68
2021/08/30 03:21:50;;;;;;;;;13.33;11.67;;;;;16.09;75.84;101604.56;5040389;28;45393;-68
2021/08/30 03:24:17;;;;;;;;;18.00;11.00;;;;;16.08;75.72;101601.06;5040903;28;49976;-69
2021/08/30 03:26:44;;;;;;;;;15.00;12.00;;;;;16.06;76.11;101599.50;5036415;28;47380;-69
2021/08/30 03:29:10;;;;;;;;;10.67;9.00;;;;;16.06;75.95;101599.50;5024494;28;45417;-69
2021/08/30 03:31:37;;;;;;;;;11.67;10.00;;;;;16.07;75.74;101606.50;4994639;28;1174203;-70
2021/08/30 03:34:03;;;;;;;;;15.00;11.67;;;;;16.08;75.43;101597.56;5035584;28;45584;-70
2021/08/30 03:36:30;;;;;;;;;14.33;10.67;;;;;16.11;75.93;101589.34;5041631;28;47062;-70
2021/08/30 03:38:57;;;;;;;;;13.67;11.33;;;;;16.12;75.53;101593.69;5041967;28;45314;-70
2021/08/30 03:41:24;;;;;;;;;16.00;13.33;;;;;16.14;75.65;101594.41;5024382;28;45379;-70
2021/08/30 03:43:51;;;;;;;;;13.00;12.33;;;;;16.14;75.69;101597.91;5053115;28;45491;-70
2021/08/30 03:46:16;;;;;;;;;14.00;13.67;;;;;16.14;75.90;101597.06;5028499;28;46401;-68
2021/08/30 03:48:43;;;;;;;;;14.33;13.00;;;;;16.15;75.49;101593.44;5048030;28;45502;-68
2021/08/30 03:51:10;;;;;;;;;16.33;13.00;;;;;16.17;75.39;101596.81;5045924;28;45375;-69
2021/08/30 03:53:36;;;;;;;;;15.67;14.00;;;;;16.19;76.07;101594.88;5037276;28;45625;-69
2021/08/30 03:56:04;;;;;;;;;7.67;7.33;;;;;16.22;75.65;101599.91;5039339;28;46205;-69
2021/08/30 03:58:30;;;;;;;;;15.67;14.67;;;;;16.22;75.46;101594.59;5038098;28;45427;-69
2021/08/30 04:01:00;;;;;;;;;18.33;14.67;;;;;16.24;75.87;101597.97;5052221;28;45438;-68
2021/08/30 04:03:26;;;;;;;;;15.00;12.00;;;;;16.24;75.71;101595.31;5038670;28;45361;-69
2021/08/30 04:05:52;;;;;;;;;17.67;15.00;;;;;16.25;75.33;101594.31;5041854;28;45230;-68
2021/08/30 04:08:18;;;;;;;;;14.33;9.33;;;;;16.26;75.63;101590.72;5036974;28;45396;-69
2021/08/30 04:10:45;;;;;;;;;14.33;13.00;;;;;16.29;75.80;101594.91;5036950;28;45390;-69
2021/08/30 04:13:10;;;;;;;;;16.33;12.33;;;;;16.31;75.76;101593.81;5032248;28;45834;-68
2021/08/30 04:15:36;;;;;;;;;13.33;8.67;;;;;16.32;75.79;101592.84;5040861;28;46662;-68
2021/08/30 04:18:01;;;;;;;;;18.00;13.00;;;;;16.29;75.87;101590.44;5046085;28;45459;-71
2021/08/30 04:20:26;;;;;;;;;17.00;16.00;;;;;16.34;75.86;101590.06;5052110;28;45864;-70
2021/08/30 04:22:52;;;;;;;;;12.67;12.33;;;;;16.35;76.21;101594.41;5038074;28;45371;-69
2021/08/30 04:25:17;;;;;;;;;18.00;15.33;;;;;16.39;75.52;101595.00;5035066;28;46300;-69
2021/08/30 04:27:43;;;;;;;;;19.00;15.00;;;;;16.40;75.89;101596.63;5037194;28;45487;-70
2021/08/30 04:30:09;;;;;;;;;17.00;14.00;;;;;16.42;76.00;101597.38;5037393;28;45460;-68
2021/08/30 04:32:37;;;;;;;;;18.33;15.67;;;;;16.44;75.50;101587.47;5044727;28;45333;-69
2021/08/30 04:35:05;;;;;;;;;16.67;15.33;;;;;16.45;75.53;101590.00;5039905;28;46222;-69
2021/08/30 04:37:30;;;;;;;;;19.67;17.67;;;;;16.47;76.16;101593.34;5063473;27;45518;-69
2021/08/30 04:39:56;;;;;;;;;15.00;13.00;;;;;16.49;75.74;101595.88;5043575;28;45253;-69
2021/08/30 04:42:21;;;;;;;;;20.00;16.67;;;;;16.48;75.85;101600.31;5026278;28;45559;-68
2021/08/30 04:44:49;;;;;;;;;17.67;16.00;;;;;16.47;75.75;101593.34;5023119;28;46142;-69
2021/08/30 04:47:15;;;;;;;;;17.33;13.00;;;;;16.48;76.07;101596.84;5039802;28;45360;-69
2021/08/30 04:49:41;;;;;;;;;23.33;18.67;;;;;16.47;76.07;101600.47;5049658;28;45390;-69
2021/08/30 04:52:06;;;;;;;;;24.00;18.33;;;;;16.47;76.27;101603.94;5047834;28;45697;-69
2021/08/30 04:54:31;;;;;;;;;12.67;12.00;;;;;16.47;76.25;101603.13;5045194;28;46099;-69
2021/08/30 04:56:57;;;;;;;;;20.33;17.67;;;;;16.47;76.79;101605.78;5043784;28;45479;-68
2021/08/30 04:59:22;;;;;;;;;15.67;15.67;;;;;16.47;76.71;101611.91;5039657;28;45441;-69
2021/08/30 05:01:47;;;;;;;;;22.33;17.33;;;;;16.49;76.83;101611.78;5048452;28;45524;-70
2021/08/30 05:04:13;;;;;;;;;20.00;18.00;;;;;16.48;76.98;101612.75;5040357;28;46635;-69
2021/08/30 05:06:38;;;;;;;;;24.00;21.33;;;;;16.47;76.87;101614.56;5044064;28;45409;-70
2021/08/30 05:09:04;;;;;;;;;20.67;17.67;;;;;16.47;77.27;101617.19;5044423;28;45385;-69
2021/08/30 05:11:29;;;;;;;;;20.67;18.33;;;;;16.48;77.16;101610.09;5044804;28;45556;-69
2021/08/30 05:13:55;;;;;;;;;16.00;12.67;;;;;16.47;77.29;101619.03;5041776;28;48432;-68
2021/08/30 05:16:20;;;;;;;;;27.00;22.33;;;;;16.45;77.25;101615.66;5035543;28;45333;-69
2021/08/30 05:18:45;;;;;;;;;26.67;22.00;;;;;16.46;77.31;101612.03;5044463;28;45646;-69
2021/08/30 05:21:10;;;;;;;;;20.33;19.00;;;;;16.43;77.43;101613.13;5043576;28;45396;-70
2021/08/30 05:23:36;;;;;;;;;24.00;20.67;;;;;16.44;77.57;101619.31;5039208;28;45502;-69
2021/08/30 05:26:02;;;;;;;;;25.33;20.67;;;;;16.43;77.19;101618.44;5040839;28;45362;-69
2021/08/30 05:28:27;;;;;;;;;21.33;17.33;;;;;16.44;77.64;101614.00;5039618;28;45331;-70
2021/08/30 05:30:53;;;;;;;;;20.67;20.00;;;;;16.45;77.37;101610.34;5043450;28;45492;-70
2021/08/30 05:33:19;;;;;;;;;20.67;15.33;;;;;16.44;77.70;101609.53;5041370;28;46248;-70
2021/08/30 05:35:44;;;;;;;;;23.00;19.33;;;;;16.45;77.38;101611.22;5051657;28;45405;-68
2021/08/30 05:38:10;;;;;;;;;23.33;18.67;;;;;16.46;77.54;101612.03;5042688;28;45659;-70
2021/08/30 05:40:35;;;;;;;;;26.00;20.33;;;;;16.49;77.46;101614.44;5055051;28;45282;-70
2021/08/30 05:43:01;;;;;;;;;26.00;23.67;;;;;16.48;77.28;101616.25;5054777;28;46173;-68
2021/08/30 05:45:27;;;;;;;;;26.00;23.67;;;;;16.49;77.56;101612.63;5045735;28;45591;-69
2021/08/30 05:47:53;;;;;;;;;24.00;21.33;;;;;16.49;77.42;101617.09;5043910;28;45328;-70
2021/08/30 05:50:18;;;;;;;;;27.67;21.00;;;;;16.49;77.44;101623.22;5043778;28;46056;-69
2021/08/30 05:52:44;;;;;;;;;31.00;22.33;;;;;16.50;77.44;101619.63;5038836;28;46097;-69
2021/08/30 05:55:09;;;;;;;;;25.33;23.00;;;;;16.52;77.42;101616.81;5036043;28;45538;-70
2021/08/30 05:57:35;;;;;;;;;33.33;25.00;;;;;16.55;77.26;101623.69;5043522;28;45520;-69
2021/08/30 06:00:00;;;;;;;;;23.00;18.67;;;;;16.56;77.51;101623.53;5043545;28;45397;-69
2021/08/30 06:02:26;;;;;;;;;23.00;19.00;;;;;16.59;77.21;101635.69;5038898;28;45483;-69
2021/08/30 06:04:51;;;;;;;;;29.67;27.00;;;;;16.61;77.40;101631.13;5039876;28;45313;-69
2021/08/30 06:07:16;;;;;;;;;30.00;26.00;;;;;16.63;77.20;101630.00;5039158;28;45404;-70
2021/08/30 06:09:42;;;;;;;;;28.67;28.00;;;;;16.66;77.16;101635.03;5043981;28;45277;-70
2021/08/30 06:12:07;;;;;;;;;32.67;28.00;;;;;16.71;76.97;101632.00;5039349;28;49914;-70
2021/08/30 06:14:33;;;;;;;;;17.33;16.00;;;;;16.72;76.94;101627.53;5026122;28;45528;-69
2021/08/30 06:16:59;;;;;;;;;28.00;24.00;;;;;16.73;76.98;101624.75;5040149;28;45401;-70
2021/08/30 06:19:24;;;;;;;;;31.33;24.33;;;;;16.72;76.85;101623.06;5043351;28;45235;-69
2021/08/30 06:21:49;;;;;;;;;31.33;27.33;;;;;16.73;76.88;101632.69;5055657;28;46959;-70
2021/08/30 06:24:15;;;;;;;;;29.00;23.67;;;;;16.79;76.79;101636.66;5032331;28;45360;-70
2021/08/30 06:26:40;;;;;;;;;31.00;25.67;;;;;16.79;76.71;101645.44;5051629;28;45232;-70
2021/08/30 06:29:07;;;;;;;;;30.33;26.00;;;;;16.82;76.44;101647.00;5039246;28;45251;-70
2021/08/30 06:31:32;;;;;;;;;28.33;25.00;;;;;16.82;76.71;101647.00;5036459;28;45606;-69
2021/08/30 06:33:57;;;;;;;;;30.00;27.67;;;;;16.82;76.64;101649.66;5034118;28;45346;-69
2021/08/30 06:36:23;;;;;;;;;27.67;25.67;;;;;16.83;76.37;101653.97;5025483;28;45679;-69
2021/08/30 06:38:49;;;;;;;;;20.00;18.33;;;;;16.85;76.54;101654.69;5042683;28;45554;-68
2021/08/30 06:41:15;;;;;;;;;29.67;28.33;;;;;16.87;76.50;101650.09;5038505;28;45436;-68
2021/08/30 06:43:40;;;;;;;;;31.67;25.33;;;;;16.90;76.43;101649.84;5037898;28;45467;-69
2021/08/30 06:46:05;;;;;;;;;26.33;25.33;;;;;16.92;76.35;101658.53;5040840;28;45488;-69
2021/08/30 06:48:31;;;;;;;;;33.67;26.33;;;;;16.93;76.02;101641.63;5042542;28;45579;-70
2021/08/30 06:50:56;;;;;;;;;35.00;29.67;;;;;16.93;75.87;101654.91;5037959;28;47087;-69
2021/08/30 06:53:21;;;;;;;;;31.33;24.00;;;;;16.95;75.91;101650.28;5042123;28;45467;-70
2021/08/30 06:55:47;;;;;;;;;31.00;25.00;;;;;16.94;76.13;101659.25;5038563;28;45434;-70
2021/08/30 06:58:12;;;;;;;;;32.33;30.00;;;;;16.97;75.70;101643.03;5034897;28;45350;-69
2021/08/30 07:00:37;;;;;;;;;33.33;26.67;;;;;16.97;75.87;101658.97;5035135;28;47284;-69
2021/08/30 07:03:03;;;;;;;;;38.33;31.33;;;;;16.98;75.78;101665.09;5043128;28;45493;-70
2021/08/30 07:05:28;;;;;;;;;23.00;18.00;;;;;16.97;75.70;101653.66;5042473;28;45503;-70
2021/08/30 07:07:54;;;;;;;;;19.33;17.67;;;;;16.96;75.57;101661.75;5038733;28;45387;-68
2021/08/30 07:10:19;;;;;;;;;31.00;26.67;;;;;17.01;75.41;101658.69;5037952;28;45400;-70
2021/08/30 07:12:44;;;;;;;;;34.33;30.00;;;;;17.04;75.40;101658.44;5054070;28;45471;-69
2021/08/30 07:15:10;;;;;;;;;33.00;25.33;;;;;17.06;75.23;101661.78;5046955;28;45521;-70
2021/08/30 07:17:36;;;;;;;;;31.00;25.00;;;;;17.12;75.24;101667.38;5048073;28;45520;-69
2021/08/30 07:20:02;;;;;;;;;29.67;27.33;;;;;17.21;74.98;101670.25;5018676;28;46085;-70
2021/08/30 07:22:27;;;;;;;;;29.00;24.33;;;;;17.26;74.44;101668.84;5051404;28;45301;-69
2021/08/30 07:24:52;;;;;;;;;22.67;18.00;;;;;17.34;74.28;101667.34;5041750;28;45262;-68
2021/08/30 07:27:18;;;;;;;;;27.00;22.00;;;;;17.38;73.49;101680.19;5042061;28;45321;-68
2021/08/30 07:29:43;;;;;;;;;33.33;28.67;;;;;17.39;73.45;101670.44;5037587;28;46077;-69
2021/08/30 07:32:09;;;;;;;;;24.67;18.00;;;;;17.40;73.37;101667.63;5043982;28;45525;-69
2021/08/30 07:34:35;;;;;;;;;21.67;18.67;;;;;17.42;73.36;101686.09;5037461;28;45380;-68
2021/08/30 07:37:01;;;;;;;;;25.33;22.67;;;;;17.41;73.28;101682.59;5035867;28;45537;-70
2021/08/30 07:39:26;;;;;;;;;26.67;21.67;;;;;17.42;73.04;101672.81;5041749;28;46667;-69
2021/08/30 07:41:51;;;;;;;;;22.67;20.00;;;;;17.44;72.99;101684.16;5019780;28;45446;-69
2021/08/30 07:44:18;;;;;;;;;23.67;21.67;;;;;17.46;72.52;101688.34;5037732;28;45377;-69
2021/08/30 07:46:43;;;;;;;;;23.33;23.33;;;;;17.49;72.61;101689.91;5038662;28;45541;-69
2021/08/30 07:49:10;;;;;;;;;29.67;25.33;;;;;17.53;72.53;101683.31;5044100;28;46258;-70
2021/08/30 07:51:36;;;;;;;;;21.67;18.67;;;;;17.56;72.29;101691.00;5038626;28;45317;-68
2021/08/30 07:54:02;;;;;;;;;20.33;17.00;;;;;17.59;72.11;101685.44;5037459;28;45351;-69
2021/08/30 07:56:27;;;;;;;;;24.33;16.33;;;;;17.62;71.68;101693.13;5040650;28;45476;-69
2021/08/30 07:58:53;;;;;;;;;23.67;19.67;;;;;17.71;71.24;101687.97;5037641;28;45891;-69
2021/08/30 08:01:18;;;;;;;;;23.67;17.33;;;;;17.75;70.72;101697.38;5054421;28;46614;-69
2021/08/30 08:03:43;;;;;;;;;19.00;16.67;;;;;17.81;71.13;101689.66;5036525;28;45826;-68
2021/08/30 08:06:09;;;;;;;;;20.00;17.33;;;;;17.90;70.71;101698.63;5053040;28;45436;-70
2021/08/30 08:08:34;;;;;;;;;17.00;16.00;;;;;18.00;70.71;101690.69;5054423;28;45295;-68
2021/08/30 08:10:59;;;;;;;;;16.67;14.33;;;;;18.09;70.11;101700.47;5034501;28;45407;-69
2021/08/30 08:13:26;;;;;;;;;16.67;15.33;;;;;18.16;69.39;101714.06;5038089;28;45361;-67
2021/08/30 08:15:52;;;;;;;;;15.00;14.33;;;;;18.23;69.36;101696.56;5049557;28;45543;-68
2021/08/30 08:18:18;;;;;;;;;17.67;15.00;;;;;18.32;69.21;101702.88;5048343;28;45480;-68
2021/08/30 08:20:43;;;;;;;;;14.33;13.00;;;;;18.39;68.87;101703.16;5029783;28;45380;-68
2021/08/30 08:23:09;;;;;;;;;16.33;15.67;;;;;18.46;68.55;101705.09;5057065;28;45526;-70
2021/08/30 08:25:35;;;;;;;;;16.67;14.67;;;;;18.50;67.78;101704.78;5040468;28;45366;-68
2021/08/30 08:28:04;;;;;;;;;19.00;13.33;;;;;18.51;66.90;101706.47;5043868;28;45263;-68
2021/08/30 08:30:29;;;;;;;;;20.67;16.33;;;;;18.53;66.91;101716.00;5047140;28;45673;-68
2021/08/30 08:32:55;;;;;;;;;17.67;15.67;;;;;18.55;67.19;101711.41;5046038;28;45386;-67
2021/08/30 08:35:20;;;;;;;;;15.33;13.00;;;;;18.57;66.42;101725.38;5044505;28;45405;-68
2021/08/30 08:37:46;;;;;;;;;17.67;14.33;;;;;18.60;66.85;101717.13;5040532;28;46173;-70
2021/08/30 08:40:12;;;;;;;;;17.67;15.33;;;;;18.61;66.84;101713.47;5037402;28;45487;-68
2021/08/30 08:42:42;;;;;;;;;18.00;13.67;;;;;18.64;66.63;101718.50;5044998;28;45369;-69
2021/08/30 08:45:09;;;;;;;;;14.67;12.67;;;;;18.75;66.53;101724.66;5026951;28;45459;-69
2021/08/30 08:47:37;;;;;;;;;15.67;14.67;;;;;18.85;66.48;101720.16;5044862;28;46328;-69
2021/08/30 08:50:07;;;;;;;;;21.33;17.00;;;;;18.94;65.73;101724.63;5042031;28;45505;-68
2021/08/30 08:52:34;;;;;;;;;15.67;11.33;;;;;19.02;65.74;101720.41;5039770;28;45318;-69
2021/08/30 08:55:00;;;;;;;;;16.67;14.33;;;;;19.09;65.81;101718.84;5038944;28;45381;-68
2021/08/30 08:57:26;;;;;;;;;19.33;17.00;;;;;19.16;64.87;101721.75;5044063;28;45433;-69
2021/08/30 08:59:59;;;;;;;;;19.67;13.67;;;;;19.16;64.62;101716.44;5049107;28;45504;-68
2021/08/30 09:02:34;;;;;;;;;13.33;12.33;;;;;19.17;64.35;101718.09;5055230;28;45353;-67
2021/08/30 09:05:00;;;;;;;;;16.33;14.33;;;;;19.23;65.15;101717.53;5040466;28;45418;-69
2021/08/30 09:07:44;;;;;;;;;19.33;15.33;;;;;19.30;65.02;101718.59;5048248;28;46875;-68
2021/08/30 09:10:16;;;;;;;;;18.00;16.33;;;;;19.36;64.20;101723.34;5035933;28;45369;-69
2021/08/30 09:12:42;;;;;;;;;14.67;14.33;;;;;19.35;63.87;101720.84;5044700;28;45493;-68
2021/08/30 09:15:12;;;;;;;;;15.67;14.00;;;;;19.37;62.73;101726.84;5050667;28;45433;-69
2021/08/30 09:17:47;;;;;;;;;12.33;9.33;;;;;19.37;63.31;101721.50;5047481;28;45626;-69
2021/08/30 09:20:18;;;;;;;;;16.67;9.67;;;;;19.38;62.79;101729.38;5041822;28;45333;-68
2021/08/30 09:22:44;;;;;;;;;17.00;16.67;;;;;19.33;62.20;101733.44;5055292;28;45392;-68
2021/08/30 09:25:11;;;;;;;;;16.00;14.33;;;;;19.30;61.97;101745.25;5041624;28;45559;-69
2021/08/30 09:27:39;;;;;;;;;15.00;12.75;;;;;19.28;62.63;101734.75;5048326;28;45433;-68
2021/08/30 09:30:11;;;;;;;;;17.33;15.33;;;;;19.34;62.68;101737.81;5049229;28;45488;-69
2021/08/30 09:32:37;;;;;;;;;17.33;14.00;;;;;19.30;62.16;101723.94;5040378;28;45437;-68
2021/08/30 09:35:04;;;;;;;;;15.33;12.00;;;;;19.40;61.77;101734.56;5040977;28;45305;-69
2021/08/30 09:37:35;;;;;;;;;14.00;13.00;;;;;19.48;62.59;101728.50;5037058;28;47381;-67
2021/08/30 09:40:02;;;;;;;;;11.33;11.33;;;;;19.56;62.07;101729.41;5055432;28;45543;-66
2021/08/30 09:42:28;;;;;;;;;14.00;10.00;;;;;19.60;62.13;101733.47;5055991;28;45423;-68
2021/08/30 09:44:55;;;;;;;;;15.00;12.75;;;;;19.63;61.97;101743.00;5050214;28;45483;-67
2021/08/30 09:47:21;;;;;;;;;14.00;14.00;;;;;19.60;61.04;101735.28;5043249;28;45448;-66
2021/08/30 09:49:52;;;;;;;;;14.67;13.33;;;;;19.54;60.80;101743.84;5039325;28;45338;-69
2021/08/30 09:52:19;;;;;;;;;8.50;8.25;;;;;19.46;61.32;101749.97;5052324;28;45302;-68
2021/08/30 09:54:45;;;;;;;;;15.25;13.75;;;;;19.39;61.02;101746.19;5043721;28;45288;-68
2021/08/30 09:57:13;;;;;;;;;12.50;12.25;;;;;19.35;61.50;101731.50;5038864;28;46353;-68
2021/08/30 09:59:41;;;;;;;;;12.50;10.50;;;;;19.36;61.49;101733.19;5043932;28;45491;-70
2021/08/30 10:02:10;;;;;;;;;9.75;8.25;;;;;19.36;61.05;101726.00;5041688;28;45460;-69
2021/08/30 10:04:37;;;;;;;;;16.50;12.00;;;;;19.42;61.05;101732.56;5052225;28;45265;-68
2021/08/30 10:07:03;;;;;;;;;14.33;13.67;;;;;19.43;60.94;101726.25;5061037;28;47566;-68
2021/08/30 10:09:30;;;;;;;;;13.33;12.67;;;;;19.41;60.27;101739.72;5045788;28;45638;-68
2021/08/30 10:11:56;;;;;;;;;12.33;12.00;;;;;19.38;61.63;101725.84;5043199;28;45582;-67
2021/08/30 10:14:23;;;;;;;;;14.67;11.00;;;;;19.32;60.57;101737.09;5054428;28;45452;-71
2021/08/30 10:16:50;;;;;;;;;12.75;11.50;;;;;19.28;60.99;101729.41;5038842;28;46356;-72
2021/08/30 10:19:30;;;;;;;;;13.67;12.33;;;;;19.28;60.91;101721.41;5055382;28;45278;-70
2021/08/30 10:21:56;;;;;;;;;16.67;14.00;;;;;19.32;61.79;101737.09;5042525;28;45532;-69
2021/08/30 10:24:22;;;;;;;;;16.00;15.33;;;;;19.34;61.23;101711.16;5055321;28;45564;-69
2021/08/30 10:26:49;;;;;;;;;12.33;11.33;;;;;19.39;60.87;101738.19;5055149;28;47163;-68
2021/08/30 10:29:16;;;;;;;;;15.00;14.33;;;;;19.41;60.35;101715.75;5034838;28;45486;-69
2021/08/30 10:31:47;;;;;;;;;13.67;13.00;;;;;19.47;60.27;101722.31;5054104;28;45452;-69
2021/08/30 10:34:24;;;;;;;;;10.33;10.00;;;;;19.53;60.46;101728.88;5041640;28;45396;-70
2021/08/30 10:36:49;;;;;;;;;18.50;13.25;;;;;19.58;60.79;101721.28;5048344;28;47039;-71
2021/08/30 10:39:14;;;;;;;;;13.25;12.00;;;;;19.63;60.86;101717.16;5046506;28;45400;-73
2021/08/30 10:41:44;;;;;;;;;8.00;8.00;;;;;19.72;60.73;101717.25;5048659;28;45487;-73
2021/08/30 10:44:12;;;;;;;;;14.00;14.00;;;;;19.77;60.46;101720.31;5056687;28;45578;-71
2021/08/30 10:46:41;;;;;;;;;15.33;13.33;;;;;19.73;59.51;101713.59;5054414;28;46355;-71
2021/08/30 10:49:09;;;;;;;;;13.00;11.00;;;;;19.76;60.19;101723.97;5043025;28;45311;-71
2021/08/30 10:51:39;;;;;;;;;14.67;13.33;;;;;19.76;59.70;101721.31;5055740;28;45563;-70
2021/08/30 10:54:12;;;;;;;;;14.33;11.33;;;;;19.81;60.04;101719.03;5056306;28;45648;-73
2021/08/30 10:56:38;;;;;;;;;11.25;11.00;;;;;19.89;60.15;101726.31;5053168;28;47092;-70
2021/08/30 10:59:06;;;;;;;;;18.25;11.50;;;;;19.94;59.54;101727.53;5054955;28;45452;-69
2021/08/30 11:01:33;;;;;;;;;8.00;7.75;;;;;20.00;58.91;101730.59;5040039;28;45330;-70
2021/08/30 11:03:59;;;;;;;;;16.50;12.00;;;;;20.00;58.64;101722.59;5054548;28;45602;-70
2021/08/30 11:06:26;;;;;;;;;14.50;13.00;;;;;19.99;58.19;101731.56;5046310;28;46880;-70
2021/08/30 11:08:51;;;;;;;;;10.50;9.50;;;;;19.93;58.78;101725.84;5050631;28;45538;-70
2021/08/30 11:11:22;;;;;;;;;11.75;10.25;;;;;19.93;59.26;101728.50;5031738;28;45447;-69
2021/08/30 11:14:08;;;;;;;;;10.33;10.00;;;;;19.94;58.70;101722.19;5050021;28;45342;-72